Meadow Lands, Pennsylvania
Current Conditions -  °F | °C
As of 7:53 PM on Sunday 21 Dec 2014 (Local Time) from KAGC Reporting Station
Clear Clear  
Wind Chill: 28°   Ceiling: Unl
Heat Index: 28°   Visibility: 10mi
Dew Point: 19°   Wind: 3mph
Humidity: 69%   Direction: 50°NE
Pressure: 30.21"   Gusts: NA
Location:  40.22°N, 80.22°W
Report Text: KAGC 220053Z 05003KT 10SM CLR M02/M07 A3021 RMK AO2 SLP249 T10221072
Loading
Personal Weather Stations






























Interactive Weather Map New forecast layout! Learn more

10-Day Weather Forecast

Advertisements
Track Severe Weather on mobile